« Back
NWS Peachtree City, Ga » Text Product » ATL Terminal Aerodrome Forecast


Printer-friendly Version
Current Version              Previous Versions:   1  2  3  4  5  6  7  8  9  

Terminal Aerodrome Forecast

188
FTUS42 KFFC 220346 AAB
TAFATL
TAF AMD
KATL 220346Z 2204/2306 03006KT P6SM FEW250
     FM221300 09008KT P6SM FEW030 SCT250
     FM221800 09010KT P6SM BKN040
     FM230000 10008KT P6SM BKN030
     FM230500 10009KT P6SM OVC020=



USA.gov is the U.S. government's official web portal to all federal, state and local government web resources and services.